createdAt,value
2019-04-03T00:04:51.173Z,10.70
2019-04-03T00:10:20.358Z,10.60
2019-04-03T00:15:58.197Z,10.60
2019-04-03T00:21:08.300Z,10.50
2019-04-03T00:26:52.686Z,10.50
2019-04-03T00:32:32.807Z,10.30
2019-04-03T00:37:45.373Z,10.20
2019-04-03T00:43:05.133Z,10.10
2019-04-03T00:48:20.834Z,10.00
2019-04-03T00:53:35.921Z,10.00
2019-04-03T00:59:09.191Z,10.00
2019-04-03T02:57:18.162Z,9.40
2019-04-03T03:02:24.728Z,9.40
2019-04-03T03:07:35.632Z,9.40
2019-04-03T03:12:41.553Z,9.40
2019-04-03T03:17:49.838Z,9.30
2019-04-03T03:22:56.574Z,9.30
2019-04-03T03:28:06.255Z,9.30
2019-04-03T03:33:32.511Z,9.30
2019-04-03T03:38:27.143Z,9.30
2019-04-03T03:43:31.492Z,9.30
2019-04-03T03:48:43.936Z,9.30
2019-04-03T03:53:55.893Z,9.20
2019-04-03T03:59:03.482Z,9.20
2019-04-03T04:04:27.851Z,9.20
2019-04-03T04:09:37.146Z,9.10
2019-04-03T04:14:43.333Z,9.10
2019-04-03T04:19:49.720Z,9.10
2019-04-03T04:24:55.379Z,9.10
2019-04-03T04:30:01.072Z,9.00
2019-04-03T04:35:10.338Z,9.00
2019-04-03T04:40:15.423Z,9.00
2019-04-03T04:45:24.308Z,9.00
2019-04-03T04:50:29.893Z,9.00
2019-04-03T04:55:35.988Z,9.00
2019-04-03T05:00:41.599Z,9.10
2019-04-03T05:05:47.387Z,9.10
2019-04-03T05:10:52.792Z,9.10
2019-04-03T05:15:58.261Z,9.10
2019-04-03T05:21:04.190Z,9.10
2019-04-03T05:26:10.242Z,9.10
2019-04-03T05:31:15.983Z,9.10
2019-04-03T05:36:21.443Z,9.10
2019-04-03T05:41:28.548Z,9.20
2019-04-03T05:46:36.731Z,9.20
2019-04-03T05:51:41.415Z,9.20
2019-04-03T05:56:46.912Z,9.30
2019-04-03T06:01:52.352Z,9.30
2019-04-03T06:06:57.858Z,9.20
2019-04-03T06:12:03.817Z,9.20
2019-04-03T06:17:09.275Z,9.20
2019-04-03T06:22:16.467Z,9.20
2019-04-03T06:27:22.106Z,9.10
2019-04-03T06:32:29.184Z,9.30
2019-04-03T06:37:35.121Z,9.30
2019-04-03T06:42:40.593Z,9.30
2019-04-03T06:47:46.053Z,9.30
2019-04-03T06:52:53.014Z,9.40
2019-04-03T06:57:58.713Z,9.50
2019-04-03T07:03:04.535Z,9.50
2019-04-03T07:08:10.453Z,9.50
2019-04-03T07:13:15.900Z,9.50
2019-04-03T07:18:21.569Z,9.40
2019-04-03T07:23:28.985Z,9.40
2019-04-03T07:28:34.199Z,9.40
2019-04-03T07:33:39.756Z,9.50
2019-04-03T07:38:45.206Z,9.70
2019-04-03T07:43:50.788Z,9.90
2019-04-03T07:48:56.294Z,10.00
2019-04-03T07:54:04.246Z,10.00
2019-04-03T07:59:08.927Z,9.90
2019-04-03T08:04:16.175Z,9.80
2019-04-03T08:09:21.509Z,9.70
2019-04-03T08:14:26.915Z,9.80
2019-04-03T08:19:32.332Z,9.80
2019-04-03T08:24:37.935Z,9.90
2019-04-03T08:29:45.145Z,10.10
2019-04-03T08:34:50.608Z,10.50
2019-04-03T08:39:58.601Z,11.00
2019-04-03T08:45:05.763Z,11.40
2019-04-03T08:50:11.049Z,11.70
2019-04-03T08:55:16.525Z,12.10
2019-04-03T09:00:22.157Z,12.60
2019-04-03T09:05:27.632Z,13.00
2019-04-03T09:10:36.411Z,13.30
2019-04-03T09:15:40.350Z,13.50
2019-04-03T09:20:45.961Z,13.80
2019-04-03T09:25:51.553Z,14.00
2019-04-03T09:30:56.953Z,14.20
2019-04-03T09:36:04.319Z,14.50
2019-04-03T09:41:09.845Z,14.40
2019-04-03T09:46:15.562Z,14.10
2019-04-03T09:51:22.526Z,14.00
2019-04-03T09:56:28.224Z,14.00
2019-04-03T10:01:33.972Z,14.10
2019-04-03T10:06:39.537Z,14.30
2019-04-03T10:11:46.724Z,14.30
2019-04-03T10:16:52.214Z,14.40
2019-04-03T10:21:57.688Z,14.50
2019-04-03T10:27:03.126Z,14.50
2019-04-03T10:32:08.551Z,14.00
2019-04-03T10:37:15.111Z,13.80
2019-04-03T10:42:20.880Z,13.90
2019-04-03T10:47:39.765Z,13.80
2019-04-03T10:52:33.819Z,13.60
2019-04-03T10:57:39.320Z,13.30
2019-04-03T11:02:44.717Z,13.30
2019-04-03T11:07:50.253Z,13.60
2019-04-03T11:12:55.757Z,13.70
2019-04-03T11:18:01.590Z,13.90
2019-04-03T11:23:08.391Z,13.90
2019-04-03T11:28:14.308Z,13.90
2019-04-03T11:33:19.749Z,14.00
2019-04-03T11:38:28.244Z,14.30
2019-04-03T11:43:32.498Z,14.40
2019-04-03T11:48:38.033Z,14.60
2019-04-03T11:53:45.250Z,14.70
2019-04-03T11:58:52.081Z,14.60
2019-04-03T12:03:57.770Z,14.50
2019-04-03T12:09:03.748Z,14.30
2019-04-03T12:14:09.587Z,14.30
2019-04-03T12:19:15.113Z,14.40
2019-04-03T12:24:20.696Z,14.60
2019-04-03T12:29:26.462Z,14.40
2019-04-03T12:34:32.066Z,14.20
2019-04-03T12:39:37.554Z,13.90
2019-04-03T12:44:43.231Z,13.60
2019-04-03T12:49:49.047Z,13.50
2019-04-03T12:54:54.705Z,13.60
2019-04-03T13:00:00.310Z,13.90
2019-04-03T13:05:07.251Z,14.00
2019-04-03T13:10:13.424Z,14.40
2019-04-03T13:15:19.423Z,14.50
2019-04-03T13:20:25.603Z,13.90
2019-04-03T13:25:31.431Z,13.70
2019-04-03T13:30:37.084Z,13.60
2019-04-03T13:35:42.574Z,13.60
2019-04-03T13:40:48.377Z,13.40
2019-04-03T13:45:53.999Z,13.30
2019-04-03T13:50:59.587Z,13.10
2019-04-03T13:56:06.206Z,12.90
2019-04-03T14:01:12.684Z,12.60
2019-04-03T14:06:18.663Z,12.40
2019-04-03T14:11:24.673Z,12.40
2019-04-03T14:16:30.166Z,12.70
2019-04-03T14:21:36.719Z,12.90
2019-04-03T14:26:44.380Z,13.00
2019-04-03T14:31:49.646Z,13.20
2019-04-03T14:36:55.508Z,13.20
2019-04-03T14:42:00.989Z,13.10
2019-04-03T14:47:06.716Z,12.90
2019-04-03T14:52:12.173Z,12.90
2019-04-03T14:57:22.275Z,12.60
2019-04-03T15:02:24.863Z,12.40
2019-04-03T15:07:30.318Z,12.40
2019-04-03T15:12:38.582Z,12.40
2019-04-03T15:17:43.090Z,12.50
2019-04-03T15:22:48.805Z,12.40
2019-04-03T15:27:54.235Z,12.30
2019-04-03T15:32:59.665Z,12.20
2019-04-03T15:38:05.312Z,12.10
2019-04-03T15:43:12.317Z,12.00
2019-04-03T15:48:20.895Z,11.90
2019-04-03T15:53:25.890Z,11.70
2019-04-03T15:58:32.101Z,11.60
2019-04-03T16:03:37.656Z,11.60
2019-04-03T16:08:45.261Z,11.60
2019-04-03T16:13:50.197Z,11.70
2019-04-03T16:18:55.932Z,11.90
2019-04-03T16:24:01.603Z,11.60
2019-04-03T16:29:08.550Z,11.50
2019-04-03T16:34:14.350Z,11.40
2019-04-03T16:39:20.386Z,11.20
2019-04-03T16:44:26.891Z,11.10
2019-04-03T16:49:32.861Z,11.10
2019-04-03T16:54:38.366Z,11.00
2019-04-03T16:59:43.986Z,10.80
2019-04-03T17:04:49.628Z,10.60
2019-04-03T17:09:55.066Z,10.40
2019-04-03T17:15:00.817Z,10.20
2019-04-03T17:20:09.363Z,10.10
2019-04-03T17:25:19.601Z,10.10
2019-04-03T17:30:28.403Z,10.00
2019-04-03T17:35:41.292Z,9.90
2019-04-03T17:40:51.137Z,9.90
2019-04-03T17:45:57.852Z,9.80
2019-04-03T17:51:03.426Z,9.80
2019-04-03T17:56:08.958Z,9.70
2019-04-03T18:01:14.663Z,9.70
2019-04-03T18:06:20.293Z,9.60
2019-04-03T18:11:25.858Z,9.60
2019-04-03T18:16:31.307Z,9.50
2019-04-03T18:21:36.777Z,9.50
2019-04-03T18:26:44.865Z,9.50
2019-04-03T18:31:49.742Z,9.50
2019-04-03T18:36:55.377Z,9.50
2019-04-03T18:42:01.136Z,9.50
2019-04-03T18:47:07.319Z,9.50
2019-04-03T18:52:13.269Z,9.50
2019-04-03T18:57:18.796Z,9.50
2019-04-03T19:02:24.581Z,9.50
2019-04-03T19:07:29.972Z,9.60
2019-04-03T19:12:36.219Z,9.60
2019-04-03T19:17:41.789Z,9.60
2019-04-03T19:22:47.240Z,9.60
2019-04-03T19:27:52.676Z,9.60
2019-04-03T19:32:59.497Z,9.60
2019-04-03T19:38:05.579Z,9.60
2019-04-03T19:43:11.139Z,9.60
2019-04-03T19:48:17.781Z,9.30
2019-04-03T19:53:23.327Z,9.40
2019-04-03T19:58:29.561Z,9.30
2019-04-03T20:03:35.328Z,9.30
2019-04-03T20:08:41.027Z,9.20
2019-04-03T20:13:46.439Z,9.20
2019-04-03T20:18:52.081Z,9.20
2019-04-03T20:23:57.665Z,9.20
2019-04-03T20:29:03.099Z,9.30
2019-04-03T20:34:08.545Z,9.20
2019-04-03T20:39:14.218Z,9.10
2019-04-03T20:44:19.742Z,9.10
2019-04-03T20:49:25.192Z,9.00
2019-04-03T20:54:30.746Z,9.00
2019-04-03T20:59:36.159Z,8.90
2019-04-03T21:04:41.612Z,8.90
2019-04-03T21:09:47.019Z,8.80
2019-04-03T21:14:52.409Z,8.80
2019-04-03T21:19:57.783Z,8.70
2019-04-03T21:25:05.358Z,8.70
2019-04-03T21:30:10.570Z,8.70
2019-04-03T21:35:16.096Z,8.60
2019-04-03T21:40:21.558Z,8.50
2019-04-03T21:45:27.037Z,8.50
2019-04-03T21:50:32.565Z,8.50
2019-04-03T21:55:38.235Z,8.40
2019-04-03T22:01:19.988Z,8.50
2019-04-03T22:06:27.664Z,8.40
2019-04-03T22:11:34.802Z,8.40
2019-04-03T22:16:39.989Z,8.30
2019-04-03T22:21:45.396Z,8.30
2019-04-03T22:26:50.788Z,8.30
2019-04-03T22:31:56.463Z,8.30
2019-04-03T22:37:03.789Z,8.30
2019-04-03T22:42:09.140Z,8.30
2019-04-03T22:47:14.564Z,8.20
2019-04-03T22:52:20.033Z,8.20
2019-04-03T22:57:25.429Z,8.20
2019-04-03T23:02:31.799Z,8.10
2019-04-03T23:07:37.751Z,8.10
2019-04-03T23:12:43.191Z,8.10
2019-04-03T23:17:48.606Z,8.10
2019-04-03T23:22:56.260Z,8.10
2019-04-03T23:28:03.039Z,8.00
2019-04-03T23:33:08.345Z,7.90
2019-04-03T23:38:13.841Z,7.80
2019-04-03T23:43:19.245Z,7.70
2019-04-03T23:48:24.654Z,7.80
2019-04-03T23:53:31.979Z,7.70
2019-04-03T23:58:37.244Z,7.70
